Etusivu
METAR-TAF:

METAR-TAF

Lentoasemat :

N’Djamenan kansainvälinen lentoasema

N'Djamena, Tšad

Leveyspiiri: 12-08N, Pituuspiiri: 015-02E, korkeus merenpinnasta: 295 m

Tämänhetkinen sää

Tämä raportti tehtiin 23 minuuttia sitten, kello 04.00 UTC
Tuuli 7 kn lounaasta
Lämpötila 29°C
Kosteus 66%
Ilmanpaine 1008 hPa
Näkyvyys 10 km tai enemmän
ei pilviä alle 1500 m:ssä eikä cumulonimbus-pilviä

METAR: FTTJ 190400Z 22007KT CAVOK 29/22 Q1008 NOSIG

Aika: 05:23 (04:23 UTC)

Sääennuste

Tämä raportti tehtiin 5 tuntia ja 23 minuuttia sitten, kello 23.00 UTC
Ennuste voimassa 19. päivästä klo 00 UTC - 20. päivään klo 06 UTC
Tuuli 12 kn lounaasta
Näkyvyys: 8000 m
Muutamia pilviä 3000 ft:n korkeudessa
Ajoittain
19. päivästä klo 10 UTC - 19. päivään klo 22 UTC
Näkyvyys: 4000 m
ukkosmyrsky, sadetta

TAF: FTTJ 182300Z 1900/2006 22012KT 8000 FEW030 TEMPO 1910/1922 4000 TSRA

Säähavainnot ja -ennusteet yli 4000 lentoasemalta (METAR- ja TAF-raportit).

Käytössä olevat sääasemat on merkitty karttaan keltaisilla ja punaisilla pisteillä.

Aseta hiiri pisteen päälle nähdäksesi sääaseman nimen.

Klikkaa sitten nähdäksesi säähavainnot ja -ennusteet.

Kartan vaihtaminen: klikkaa mustalla rastilla varustettuja vihreitä pisteitä, niin voit zoomata sisään; viivalla varustettua vihreää pistettä, niin voit zoomata ulos tai vihreitä nuolia, niin pääset viereisille kartoille.


METAR-TAF: